Time;durP1;ratioP1;P1;durP2;ratioP2;P2;SDS_P1;SDS_P2;PMS_P1;PMS_P2;Temp;Humidity;BMP_temperature;BMP_pressure;BME280_temperature;BME280_humidity;BME280_pressure;Samples;Min_cycle;Max_cycle;Signal;HPM_P1;HPM_P2
2022/02/13 00:00:12;;;;;;;24.77;5.05;;;;;;;12.43;81.49;100064.28;4975714;28;20047;-87
2022/02/13 00:02:41;;;;;;;26.98;4.32;;;;;;;12.23;82.75;100047.47;4975833;28;20054;-87
2022/02/13 00:05:08;;;;;;;24.27;3.70;;;;;;;12.52;80.28;100044.25;4975839;28;20118;-87
2022/02/13 00:07:34;;;;;;;30.02;4.63;;;;;;;12.56;80.27;100033.38;4975811;28;20539;-87
2022/02/13 00:10:00;;;;;;;24.77;4.30;;;;;;;12.63;79.42;100028.44;4975661;28;20035;-88
2022/02/13 00:12:26;;;;;;;21.75;3.50;;;;;;;12.49;80.54;100032.19;4976176;28;20034;-88
2022/02/13 00:14:53;;;;;;;30.75;3.95;;;;;;;12.49;81.55;100037.47;4975827;28;20031;-88
2022/02/13 00:17:19;;;;;;;28.83;4.25;;;;;;;12.79;79.19;100028.81;4975697;28;20041;-88
2022/02/13 00:19:46;;;;;;;23.92;3.30;;;;;;;12.70;79.30;100032.22;4975498;28;20034;-87
2022/02/13 00:22:12;;;;;;;20.85;4.65;;;;;;;12.56;80.70;100025.47;4975818;28;20027;-88
2022/02/13 00:24:37;;;;;;;20.88;3.90;;;;;;;12.23;82.62;100021.16;4971324;28;20031;-88
2022/02/13 00:27:04;;;;;;;26.83;3.80;;;;;;;12.56;81.29;100014.94;4956052;29;20098;-87
2022/02/13 00:29:30;;;;;;;23.45;4.20;;;;;;;12.39;82.58;100016.31;4955824;28;20454;-87
2022/02/13 00:31:55;;;;;;;20.38;3.28;;;;;;;12.59;80.58;100019.94;4956203;28;20030;-88
2022/02/13 00:34:21;;;;;;;27.08;4.18;;;;;;;12.72;80.49;100021.53;4954876;28;20023;-88
2022/02/13 00:36:46;;;;;;;18.35;3.35;;;;;;;12.76;80.27;100001.91;4956403;28;20035;-87
2022/02/13 00:39:12;;;;;;;19.45;3.40;;;;;;;12.87;79.03;99993.94;4955825;28;20023;-87
2022/02/13 00:41:37;;;;;;;14.88;3.20;;;;;;;12.87;79.03;99989.50;4955722;28;20106;-87
2022/02/13 00:44:03;;;;;;;17.45;3.40;;;;;;;13.07;78.03;99993.09;4955877;28;20102;-88
2022/02/13 00:46:28;;;;;;;18.23;4.07;;;;;;;12.97;78.13;100000.09;4955646;28;20028;-88
2022/02/13 00:48:54;;;;;;;15.40;2.67;;;;;;;12.96;77.97;99985.25;4955785;28;20095;-88
2022/02/13 00:51:20;;;;;;;19.13;3.30;;;;;;;12.81;78.72;100004.97;4955652;28;20027;-88
2022/02/13 00:53:46;;;;;;;27.08;3.80;;;;;;;12.40;82.01;99982.91;4955478;28;20023;-87
2022/02/13 00:56:12;;;;;;;18.58;3.15;;;;;;;12.76;79.66;99986.09;4955807;28;20031;-87
2022/02/13 00:58:37;;;;;;;14.48;2.70;;;;;;;13.14;77.29;99974.94;4955456;28;20082;-87
2022/02/13 01:01:04;;;;;;;17.95;2.78;;;;;;;12.94;78.27;99989.81;4955525;28;20485;-87
2022/02/13 01:03:29;;;;;;;12.50;2.78;;;;;;;13.20;77.28;99984.13;4955622;28;20028;-87
2022/02/13 01:05:55;;;;;;;18.33;2.08;;;;;;;13.03;77.81;99960.06;4955466;28;20081;-87
2022/02/13 01:08:20;;;;;;;13.98;2.28;;;;;;;13.01;77.97;99974.31;4955291;28;20050;-86
2022/02/13 01:10:46;;;;;;;13.68;2.05;;;;;;;13.02;78.20;99965.44;4955549;28;20090;-87
2022/02/13 01:13:11;;;;;;;12.98;2.63;;;;;;;12.79;79.08;99954.22;4955380;28;20147;-87
2022/02/13 01:15:37;;;;;;;15.25;2.97;;;;;;;13.25;76.82;99971.38;4954127;28;20195;-86
2022/02/13 01:18:02;;;;;;;22.77;4.15;;;;;;;12.96;78.08;99966.81;4955287;28;20031;-87
2022/02/13 01:20:28;;;;;;;13.65;2.15;;;;;;;13.12;77.70;99960.22;4955292;28;20035;-87
2022/02/13 01:22:53;;;;;;;9.68;2.28;;;;;;;13.28;76.32;99957.94;4955160;28;20083;-87
2022/02/13 01:25:19;;;;;;;18.40;3.78;;;;;;;13.29;76.49;99962.25;4953784;28;20389;-87
2022/02/13 01:27:44;;;;;;;14.50;3.08;;;;;;;13.37;76.03;99948.41;4955061;28;20110;-87
2022/02/13 01:30:10;;;;;;;19.23;2.38;;;;;;;13.37;75.80;99949.28;4954871;28;20477;-87
2022/02/13 01:32:36;;;;;;;14.27;2.80;;;;;;;13.01;77.51;99947.97;4954836;28;20474;-86
2022/02/13 01:35:01;;;;;;;16.65;2.65;;;;;;;13.23;76.72;99941.66;4954940;28;20020;-87
2022/02/13 01:37:27;;;;;;;13.00;2.75;;;;;;;13.36;76.06;99944.13;4954994;28;20035;-87
2022/02/13 01:39:52;;;;;;;21.00;2.70;;;;;;;13.28;76.41;99940.31;4954533;28;20036;-87
2022/02/13 01:42:18;;;;;;;16.02;3.08;;;;;;;13.33;75.90;99947.88;4953486;28;20489;-86
2022/02/13 01:44:43;;;;;;;20.08;3.50;;;;;;;13.24;75.99;99938.09;4954674;28;20069;-87
2022/02/13 01:47:09;;;;;;;13.80;2.80;;;;;;;13.28;76.22;99935.03;4954834;28;20536;-86
2022/02/13 01:49:34;;;;;;;15.18;3.03;;;;;;;13.31;76.01;99917.31;4954677;28;20023;-86
2022/02/13 01:52:03;;;;;;;15.13;2.42;;;;;;;13.20;76.50;99926.97;4954902;28;20023;-87
2022/02/13 01:54:30;;;;;;;19.13;3.17;;;;;;;13.34;75.87;99919.69;4954577;28;20062;-86
2022/02/13 01:56:55;;;;;;;15.43;3.30;;;;;;;13.36;75.35;99904.56;4954076;28;20402;-87
2022/02/13 01:59:22;;;;;;;19.17;3.10;;;;;;;13.16;76.31;99903.66;4954361;28;20122;-87
2022/02/13 02:01:47;;;;;;;18.38;2.75;;;;;;;13.24;75.86;99880.09;4954236;28;20034;-86
2022/02/13 02:04:13;;;;;;;14.35;2.60;;;;;;;13.34;75.49;99880.97;4954410;28;20043;-87
2022/02/13 02:06:38;;;;;;;13.68;3.47;;;;;;;12.94;76.94;99888.84;4954226;28;20473;-87
2022/02/13 02:09:05;;;;;;;17.73;2.83;;;;;;;13.00;77.17;99889.16;4954495;28;20028;-87
2022/02/13 02:11:30;;;;;;;21.05;4.10;;;;;;;12.95;77.39;99880.78;4954366;28;20085;-86
2022/02/13 02:13:55;;;;;;;25.42;3.80;;;;;;;13.12;77.25;99884.63;4954375;28;20027;-86
2022/02/13 02:16:21;;;;;;;23.20;4.57;;;;;;;13.17;76.80;99876.31;4954355;28;20398;-87
2022/02/13 02:18:46;;;;;;;18.00;3.88;;;;;;;13.36;75.79;99865.84;4954190;28;20039;-87
2022/02/13 02:21:12;;;;;;;20.73;4.57;;;;;;;13.27;75.74;99856.91;4954145;28;20136;-87
2022/02/13 02:23:39;;;;;;;15.73;2.70;;;;;;;13.39;75.41;99859.47;4954162;28;20430;-86
2022/02/13 02:26:04;;;;;;;19.67;3.97;;;;;;;13.09;76.95;99845.34;4953966;28;20478;-86
2022/02/13 02:28:30;;;;;;;17.52;3.63;;;;;;;13.12;76.77;99844.25;4953995;28;20053;-87
2022/02/13 02:30:55;;;;;;;23.63;4.38;;;;;;;13.39;75.69;99831.31;4954000;28;20027;-87
2022/02/13 02:33:21;;;;;;;18.08;3.63;;;;;;;13.28;75.84;99834.03;4953969;28;20108;-87
2022/02/13 02:35:49;;;;;;;22.00;4.40;;;;;;;12.90;77.37;99825.88;4953961;28;20027;-86
2022/02/13 02:38:15;;;;;;;19.88;3.50;;;;;;;13.22;76.69;99826.66;4953937;28;20058;-87
2022/02/13 02:40:41;;;;;;;12.10;3.20;;;;;;;13.32;75.50;99817.00;4953684;28;20121;-86
2022/02/13 02:43:07;;;;;;;19.83;4.35;;;;;;;13.02;76.80;99817.88;4952622;29;20440;-86
2022/02/13 02:45:32;;;;;;;17.30;2.85;;;;;;;13.09;76.11;99809.28;4953828;28;20028;-87
2022/02/13 02:47:57;;;;;;;20.33;3.65;;;;;;;12.85;76.88;99801.72;4953671;28;20442;-87
2022/02/13 02:50:23;;;;;;;19.25;2.92;;;;;;;12.91;77.06;99797.72;4953767;28;20024;-87
2022/02/13 02:52:49;;;;;;;16.40;3.03;;;;;;;12.88;76.80;99792.72;4953740;28;20505;-87
2022/02/13 02:55:14;;;;;;;23.27;3.00;;;;;;;12.62;78.23;99785.28;4953822;28;20031;-86
2022/02/13 02:57:39;;;;;;;11.85;2.40;;;;;;;13.17;75.67;99768.22;4953878;28;20024;-87
2022/02/13 03:00:06;;;;;;;13.55;2.58;;;;;;;13.25;74.95;99776.28;4953459;28;20090;-87
2022/02/13 03:02:32;;;;;;;11.60;3.17;;;;;;;13.25;74.59;99771.00;4953622;28;20050;-87
2022/02/13 03:04:58;;;;;;;15.77;3.10;;;;;;;13.22;74.97;99766.03;4953733;28;20541;-86
2022/02/13 03:07:23;;;;;;;11.70;2.05;;;;;;;12.95;75.69;99758.75;4953672;28;20031;-86
2022/02/13 03:09:49;;;;;;;12.50;2.40;;;;;;;13.13;75.13;99743.97;4955584;28;20024;-87
2022/02/13 03:12:14;;;;;;;17.02;2.95;;;;;;;13.26;74.81;99743.69;4957550;28;20027;-86
2022/02/13 03:14:40;;;;;;;16.45;2.78;;;;;;;13.06;75.00;99730.47;4957433;28;20023;-86
2022/02/13 03:17:06;;;;;;;14.70;2.40;;;;;;;12.88;75.38;99726.88;4957472;28;20394;-87
2022/02/13 03:19:33;;;;;;;12.88;2.30;;;;;;;12.56;77.55;99724.41;4957636;28;20023;-86
2022/02/13 03:21:58;;;;;;;19.45;2.83;;;;;;;12.65;76.28;99729.69;4957343;28;20027;-87
2022/02/13 03:24:24;;;;;;;12.45;1.95;;;;;;;12.62;76.70;99716.00;4957314;28;20393;-87
2022/02/13 03:26:49;;;;;;;13.13;2.53;;;;;;;12.88;75.54;99711.88;4957554;28;20030;-87
2022/02/13 03:29:15;;;;;;;18.77;3.42;;;;;;;12.61;76.40;99725.66;4957380;28;20166;-87
2022/02/13 03:31:41;;;;;;;10.02;1.55;;;;;;;12.51;76.63;99703.75;4957147;28;20046;-87
2022/02/13 03:34:07;;;;;;;9.65;1.58;;;;;;;12.39;77.30;99704.81;4957408;28;20035;-86
2022/02/13 03:36:33;;;;;;;12.43;1.95;;;;;;;12.66;75.95;99702.41;4957298;28;20027;-86
2022/02/13 03:38:59;;;;;;;12.63;1.98;;;;;;;12.59;76.09;99700.44;4955646;28;20494;-86
2022/02/13 03:41:24;;;;;;;19.90;3.97;;;;;;;12.47;76.03;99699.72;4956810;28;20031;-86
2022/02/13 03:43:50;;;;;;;8.60;1.83;;;;;;;12.58;75.03;99689.09;4957010;28;20047;-86
2022/02/13 03:46:15;;;;;;;16.58;2.25;;;;;;;12.33;76.30;99686.94;4956852;28;20031;-86
2022/02/13 03:48:41;;;;;;;15.75;2.22;;;;;;;12.38;75.99;99689.97;4956868;28;20031;-86
2022/02/13 03:51:06;;;;;;;16.52;2.25;;;;;;;12.51;75.77;99677.41;4956921;28;20031;-87
2022/02/13 03:53:31;;;;;;;15.07;2.13;;;;;;;12.61;75.22;99673.00;4956711;28;20027;-87
2022/02/13 03:55:57;;;;;;;9.90;2.42;;;;;;;12.52;74.98;99673.81;4956684;28;20523;-86
2022/02/13 03:58:22;;;;;;;18.00;2.08;;;;;;;12.47;75.25;99674.22;4956654;28;20019;-86
2022/02/13 04:00:47;;;;;;;8.13;2.35;;;;;;;12.36;75.73;99661.19;4956644;28;20066;-87
2022/02/13 04:03:13;;;;;;;21.25;3.67;;;;;;;12.35;75.72;99651.59;4956761;28;20034;-86
2022/02/13 04:05:38;;;;;;;16.85;3.45;;;;;;;12.44;76.01;99650.81;4956803;28;20074;-86
2022/02/13 04:08:04;;;;;;;21.50;2.83;;;;;;;12.34;76.75;99639.38;4956606;28;20049;-87
2022/02/13 04:10:29;;;;;;;17.17;2.47;;;;;;;12.00;77.89;99647.59;4956358;28;20034;-87
2022/02/13 04:12:55;;;;;;;11.13;1.90;;;;;;;12.43;76.35;99638.59;4956504;28;20106;-86
2022/02/13 04:15:21;;;;;;;16.08;2.25;;;;;;;11.70;80.13;99645.75;4956544;28;20058;-86
2022/02/13 04:17:46;;;;;;;16.30;2.45;;;;;;;12.07;79.08;99634.75;4956395;28;20023;-86
2022/02/13 04:20:11;;;;;;;20.90;2.22;;;;;;;12.25;78.07;99627.88;4955824;28;20059;-86
2022/02/13 04:22:37;;;;;;;19.40;2.22;;;;;;;12.41;77.49;99626.53;4956448;28;20030;-86
2022/02/13 04:25:03;;;;;;;10.38;1.85;;;;;;;12.17;77.72;99622.44;4968785;28;20031;-87
2022/02/13 04:27:29;;;;;;;11.15;2.05;;;;;;;12.14;78.27;99612.19;4975541;28;20019;-86
2022/02/13 04:29:54;;;;;;;13.02;2.50;;;;;;;12.43;76.92;99607.00;4975535;28;20037;-86
2022/02/13 04:32:20;;;;;;;12.27;2.28;;;;;;;11.97;78.41;99594.41;4975547;28;20023;-86
2022/02/13 04:34:46;;;;;;;13.10;1.60;;;;;;;11.96;78.57;99588.31;4974070;28;20393;-86
2022/02/13 04:37:13;;;;;;;12.80;2.30;;;;;;;12.10;77.86;99600.25;4975288;28;20477;-86
2022/02/13 04:39:39;;;;;;;13.77;2.20;;;;;;;12.15;77.50;99584.91;4975173;28;20612;-86
2022/02/13 04:42:04;;;;;;;15.02;2.78;;;;;;;11.76;79.28;99594.44;4975121;28;20138;-86
2022/02/13 04:44:30;;;;;;;14.23;2.42;;;;;;;11.72;80.05;99585.97;4975470;28;20093;-86
2022/02/13 04:46:55;;;;;;;18.80;2.58;;;;;;;11.68;80.43;99574.88;4975342;28;20037;-86
2022/02/13 04:49:20;;;;;;;20.20;2.22;;;;;;;11.84;79.51;99558.59;4975195;28;20457;-86
2022/02/13 04:51:46;;;;;;;16.00;2.60;;;;;;;11.78;79.52;99567.03;4975093;28;20089;-87
2022/02/13 04:54:11;;;;;;;18.40;2.85;;;;;;;11.88;78.74;99559.16;4975152;28;20023;-87
2022/02/13 04:56:37;;;;;;;16.88;2.58;;;;;;;11.71;79.57;99542.25;4974012;28;20023;-86
2022/02/13 04:59:02;;;;;;;17.83;3.08;;;;;;;12.00;77.99;99549.41;4974959;28;20486;-87
2022/02/13 05:01:28;;;;;;;17.17;4.00;;;;;;;12.04;76.62;99537.66;4973516;28;20114;-87
2022/02/13 05:03:56;;;;;;;17.25;3.15;;;;;;;12.01;76.07;99530.88;4974820;28;20397;-86
2022/02/13 05:06:21;;;;;;;19.88;3.25;;;;;;;11.60;76.77;99524.75;4974972;28;20027;-86
2022/02/13 05:08:47;;;;;;;15.65;3.33;;;;;;;11.97;76.15;99526.03;4974634;28;20113;-86
2022/02/13 05:11:12;;;;;;;18.55;3.17;;;;;;;11.93;75.99;99522.81;4974939;28;20105;-86
2022/02/13 05:13:38;;;;;;;19.75;3.47;;;;;;;11.67;76.42;99514.53;4974617;28;20409;-86
2022/02/13 05:16:03;;;;;;;15.30;2.80;;;;;;;11.66;75.67;99523.38;4974768;28;20038;-86
2022/02/13 05:18:29;;;;;;;20.40;3.67;;;;;;;11.68;75.98;99514.41;4974716;28;20019;-86
2022/02/13 05:20:54;;;;;;;16.90;2.97;;;;;;;11.98;74.53;99501.34;4974396;28;20548;-86
2022/02/13 05:23:19;;;;;;;23.20;3.42;;;;;;;11.78;75.20;99503.91;4973197;28;20029;-86
2022/02/13 05:25:45;;;;;;;16.60;3.35;;;;;;;11.93;74.56;99519.34;4974540;28;20377;-87
2022/02/13 05:28:11;;;;;;;21.63;2.35;;;;;;;11.69;74.71;99488.94;4973549;28;20041;-86
2022/02/13 05:30:36;;;;;;;13.40;2.83;;;;;;;11.93;74.28;99493.03;4974276;28;20035;-85
2022/02/13 05:33:01;;;;;;;25.10;3.28;;;;;;;11.62;74.67;99464.16;4973704;28;20031;-85
2022/02/13 05:35:27;;;;;;;23.42;4.15;;;;;;;11.59;74.98;99448.63;4974359;28;20026;-86
2022/02/13 05:37:53;;;;;;;17.83;2.85;;;;;;;11.71;74.50;99443.13;4974003;28;20042;-86
2022/02/13 05:40:18;;;;;;;21.55;2.95;;;;;;;11.89;73.35;99434.63;4983407;28;20390;-86
2022/02/13 05:42:44;;;;;;;23.50;3.20;;;;;;;11.82;72.99;99423.78;4981512;28;20396;-86
2022/02/13 05:45:10;;;;;;;20.83;2.63;;;;;;;12.15;72.17;99426.19;4981974;28;20481;-85
2022/02/13 05:47:35;;;;;;;12.18;2.10;;;;;;;12.11;72.30;99428.28;4980699;28;20041;-85
2022/02/13 05:50:01;;;;;;;18.38;2.95;;;;;;;11.71;73.04;99426.53;4980554;28;20027;-85
2022/02/13 05:52:27;;;;;;;25.10;3.50;;;;;;;11.50;73.47;99442.38;4976637;28;20023;-85
2022/02/13 05:54:52;;;;;;;22.10;2.97;;;;;;;11.89;72.36;99413.59;4975657;28;20042;-86
2022/02/13 05:57:18;;;;;;;20.05;2.65;;;;;;;11.57;72.84;99409.34;4979790;28;20026;-86
2022/02/13 05:59:43;;;;;;;14.57;2.92;;;;;;;11.84;72.05;99397.34;4976109;28;20039;-85
2022/02/13 06:02:09;;;;;;;19.73;3.08;;;;;;;11.71;72.62;99382.66;4978694;28;20029;-85
2022/02/13 06:04:34;;;;;;;13.27;2.58;;;;;;;11.55;72.59;99390.22;4977166;28;20058;-85
2022/02/13 06:06:59;;;;;;;17.13;3.45;;;;;;;11.46;72.57;99386.63;4976975;28;20023;-85
2022/02/13 06:09:25;;;;;;;17.33;2.75;;;;;;;11.52;72.70;99383.44;4981326;28;20054;-86
2022/02/13 06:11:50;;;;;;;23.35;2.53;;;;;;;11.54;71.99;99378.06;4981086;28;20501;-85
2022/02/13 06:14:16;;;;;;;22.17;3.72;;;;;;;11.49;72.74;99360.06;4980082;28;20039;-86
2022/02/13 06:16:42;;;;;;;15.05;2.58;;;;;;;11.48;72.25;99347.88;4977105;28;20054;-87
2022/02/13 06:19:07;;;;;;;15.68;2.67;;;;;;;11.34;72.57;99339.56;4974213;28;20027;-85
2022/02/13 06:21:33;;;;;;;18.60;3.08;;;;;;;11.59;72.26;99340.84;4974634;28;20113;-86
2022/02/13 06:23:58;;;;;;;16.10;2.42;;;;;;;11.76;71.92;99326.19;4974112;28;20041;-86
2022/02/13 06:26:25;;;;;;;18.30;3.08;;;;;;;11.50;71.87;99313.59;4974527;28;20043;-86
2022/02/13 06:28:51;;;;;;;21.63;2.78;;;;;;;11.28;72.24;99289.22;4974421;28;20072;-86
2022/02/13 06:31:17;;;;;;;20.85;2.63;;;;;;;11.07;73.28;99305.06;4974406;28;20118;-86
2022/02/13 06:33:42;;;;;;;17.23;2.60;;;;;;;11.38;72.55;99296.28;4974487;28;20088;-86
2022/02/13 06:36:09;;;;;;;18.95;2.13;;;;;;;11.28;72.52;99310.22;4974628;28;20038;-86
2022/02/13 06:38:34;;;;;;;26.20;3.83;;;;;;;11.22;72.86;99291.56;4973856;28;20031;-86
2022/02/13 06:41:00;;;;;;;19.98;2.63;;;;;;;10.87;73.44;99284.97;4973791;28;20038;-85
2022/02/13 06:43:25;;;;;;;25.38;3.10;;;;;;;10.85;74.03;99286.91;4973466;28;20058;-86
2022/02/13 06:45:51;;;;;;;12.85;2.55;;;;;;;11.03;73.24;99273.94;4973915;28;20061;-85
2022/02/13 06:48:16;;;;;;;14.45;3.15;;;;;;;10.89;73.30;99257.59;4973778;28;20097;-86
2022/02/13 06:50:42;;;;;;;19.33;4.43;;;;;;;10.85;73.39;99256.22;4973529;28;20038;-86
2022/02/13 06:53:07;;;;;;;15.23;2.70;;;;;;;10.73;73.53;99245.97;4973769;28;20469;-86
2022/02/13 06:55:33;;;;;;;24.90;2.65;;;;;;;10.93;73.21;99245.03;4973894;28;20042;-85
2022/02/13 06:57:59;;;;;;;32.22;3.65;;;;;;;10.76;73.85;99248.31;4973675;28;20106;-86
2022/02/13 07:00:25;;;;;;;15.68;2.25;;;;;;;10.95;73.27;99240.47;4973662;28;20473;-86
2022/02/13 07:02:50;;;;;;;15.70;2.67;;;;;;;10.69;74.09;99233.09;4973669;28;20030;-86
2022/02/13 07:05:16;;;;;;;17.27;2.03;;;;;;;10.64;74.20;99274.69;4973542;28;20134;-85
2022/02/13 07:07:41;;;;;;;13.05;2.90;;;;;;;10.64;73.86;99235.31;4973904;28;20081;-85
2022/02/13 07:10:09;;;;;;;21.13;2.75;;;;;;;10.56;74.32;99234.28;4973799;28;20031;-86
2022/02/13 07:12:36;;;;;;;14.85;2.50;;;;;;;10.64;73.69;99219.56;4973416;28;20398;-87
2022/02/13 07:15:02;;;;;;;11.98;2.13;;;;;;;10.96;72.89;99220.28;4973438;28;20101;-86
2022/02/13 07:17:28;;;;;;;20.83;2.63;;;;;;;10.71;73.42;99212.78;4973248;28;20019;-86
2022/02/13 07:19:53;;;;;;;16.13;2.60;;;;;;;10.73;72.75;99210.03;4973211;28;20485;-86
2022/02/13 07:22:19;;;;;;;15.27;2.95;;;;;;;10.57;73.20;99207.91;4973561;28;20026;-86
2022/02/13 07:24:44;;;;;;;18.90;2.42;;;;;;;10.81;72.45;99204.94;4973363;28;20034;-86
2022/02/13 07:27:09;;;;;;;16.85;2.08;;;;;;;10.77;72.44;99200.09;4973155;28;20037;-86
2022/02/13 07:29:36;;;;;;;15.13;3.00;;;;;;;10.72;72.53;99179.47;4972720;28;20041;-86
2022/02/13 07:32:03;;;;;;;14.80;3.22;;;;;;;10.63;72.57;99186.38;4973154;28;20037;-86
2022/02/13 07:34:28;;;;;;;15.63;2.55;;;;;;;10.82;72.30;99182.97;4972957;28;20054;-87
2022/02/13 07:36:54;;;;;;;14.68;3.70;;;;;;;10.50;72.58;99173.50;4973081;28;20031;-86
2022/02/13 07:39:20;;;;;;;20.58;2.22;;;;;;;10.46;72.74;99176.50;4971503;28;20046;-86
2022/02/13 07:41:46;;;;;;;14.38;2.67;;;;;;;10.85;71.96;99166.09;4972970;28;20066;-86
2022/02/13 07:44:11;;;;;;;15.07;2.30;;;;;;;10.89;71.83;99164.88;4972639;28;20062;-87
2022/02/13 07:46:37;;;;;;;14.50;2.63;;;;;;;10.89;71.53;99162.25;4972736;28;20450;-86
2022/02/13 07:49:05;;;;;;;15.80;2.17;;;;;;;10.94;71.16;99161.81;4972627;28;20034;-87
2022/02/13 07:51:32;;;;;;;19.27;2.53;;;;;;;10.69;71.91;99161.38;4972658;28;20397;-87
2022/02/13 07:53:58;;;;;;;13.20;1.90;;;;;;;10.96;71.09;99160.72;4972803;28;20026;-87
2022/02/13 07:56:23;;;;;;;12.30;2.67;;;;;;;10.69;71.45;99159.59;4975417;28;20385;-87
2022/02/13 07:58:49;;;;;;;12.60;2.20;;;;;;;10.75;71.65;99165.28;4976123;28;20031;-87
2022/02/13 08:01:17;;;;;;;10.63;1.83;;;;;;;10.95;71.51;99166.13;4976121;28;20042;-86
2022/02/13 08:03:43;;;;;;;12.55;2.08;;;;;;;10.93;71.18;99168.88;4975969;28;20023;-87
2022/02/13 08:06:09;;;;;;;18.33;2.78;;;;;;;10.68;72.01;99159.72;4976038;28;20023;-87
2022/02/13 08:08:36;;;;;;;11.57;1.75;;;;;;;10.81;71.57;99151.59;4976048;28;20468;-87
2022/02/13 08:11:03;;;;;;;16.80;2.03;;;;;;;10.64;72.11;99169.69;4974309;28;20019;-86
2022/02/13 08:13:29;;;;;;;17.77;2.20;;;;;;;10.91;70.90;99152.44;4976543;28;20050;-88
2022/02/13 08:15:54;;;;;;;17.70;2.00;;;;;;;11.31;69.78;99146.19;4975903;28;20194;-88
2022/02/13 08:18:20;;;;;;;14.23;2.15;;;;;;;11.14;70.26;99139.84;4976125;28;20027;-86
2022/02/13 08:20:46;;;;;;;10.63;1.80;;;;;;;11.50;69.60;99135.66;4966771;28;20043;-85
2022/02/13 08:23:12;;;;;;;14.25;2.90;;;;;;;11.37;69.92;99123.78;4972661;28;20018;-87
2022/02/13 08:25:40;;;;;;;17.35;1.77;;;;;;;11.03;70.52;99138.19;4971479;28;20027;-86
2022/02/13 08:28:05;;;;;;;20.92;2.67;;;;;;;11.27;70.30;99114.09;4958980;28;20027;-86
2022/02/13 08:30:30;;;;;;;10.00;2.00;;;;;;;11.23;70.25;99111.91;4966689;28;20029;-85
2022/02/13 08:32:58;;;;;;;9.93;2.30;;;;;;;11.25;70.83;99104.72;4966740;28;20052;-86
2022/02/13 08:35:26;;;;;;;16.48;2.63;;;;;;;11.12;71.65;99094.50;4961150;28;20027;-87
2022/02/13 08:37:52;;;;;;;12.48;2.05;;;;;;;11.69;70.03;99105.88;4965147;28;20114;-87
2022/02/13 08:40:17;;;;;;;12.95;2.50;;;;;;;11.08;72.42;99086.06;4967078;28;20118;-86
2022/02/13 08:42:43;;;;;;;17.02;2.35;;;;;;;11.23;72.60;99093.53;4971765;28;20046;-88
2022/02/13 08:45:09;;;;;;;14.55;2.65;;;;;;;11.66;71.36;99094.81;4975302;28;20026;-87
2022/02/13 08:47:34;;;;;;;17.27;2.42;;;;;;;10.99;73.64;99086.91;4972352;28;20362;-86
2022/02/13 08:50:00;;;;;;;13.35;2.72;;;;;;;11.02;74.07;99073.50;4974047;28;20031;-86
2022/02/13 08:52:25;;;;;;;15.10;2.47;;;;;;;11.00;74.75;99078.06;4974830;28;20618;-87
2022/02/13 08:54:50;;;;;;;13.00;2.58;;;;;;;11.24;74.52;99071.53;4974114;28;20037;-87
2022/02/13 08:57:16;;;;;;;14.50;3.33;;;;;;;10.85;75.78;99064.53;4974775;28;20114;-86
2022/02/13 08:59:41;;;;;;;14.82;2.42;;;;;;;10.96;76.21;99047.81;4974423;28;20078;-86
2022/02/13 09:02:07;;;;;;;18.58;2.97;;;;;;;11.02;75.90;99057.75;4973794;28;20061;-86
2022/02/13 09:04:34;;;;;;;16.23;2.90;;;;;;;10.95;76.59;99033.00;4970303;28;20042;-86
2022/02/13 09:07:00;;;;;;;14.80;3.17;;;;;;;10.96;76.80;99036.44;4954021;28;20029;-86
2022/02/13 09:09:26;;;;;;;15.48;2.88;;;;;;;10.97;77.63;99023.19;4965426;28;20027;-85
2022/02/13 09:11:52;;;;;;;17.40;2.83;;;;;;;11.08;77.19;99020.41;4974340;28;20062;-85
2022/02/13 09:14:17;;;;;;;17.92;3.40;;;;;;;10.73;79.13;99005.25;4974701;28;20457;-85
2022/02/13 09:16:42;;;;;;;13.88;3.30;;;;;;;10.75;79.99;98999.88;4974505;28;20050;-85
2022/02/13 09:19:08;;;;;;;10.45;2.60;;;;;;;10.87;79.26;98990.88;4969143;28;20031;-86
2022/02/13 09:21:34;;;;;;;12.65;2.83;;;;;;;10.83;79.93;98968.47;4974688;28;20113;-88
2022/02/13 09:24:00;;;;;;;14.05;2.78;;;;;;;11.11;78.98;98970.19;4974269;28;20114;-86
2022/02/13 09:26:26;;;;;;;9.23;2.30;;;;;;;10.95;78.78;98967.34;4973324;28;20098;-85
2022/02/13 09:28:51;;;;;;;13.10;2.67;;;;;;;11.13;78.48;98964.81;4974324;28;20031;-85
2022/02/13 09:31:17;;;;;;;12.80;3.17;;;;;;;11.02;78.91;98944.81;4974311;28;20038;-85
2022/02/13 09:33:42;;;;;;;18.02;3.35;;;;;;;10.89;79.53;98945.09;4974330;28;20037;-86
2022/02/13 09:36:08;;;;;;;13.43;2.90;;;;;;;10.78;81.19;98944.44;4975959;28;20034;-93
2022/02/13 09:38:33;;;;;;;7.88;2.45;;;;;;;10.78;80.47;98944.44;4966932;28;20019;-91
2022/02/13 09:41:00;;;;;;;12.35;2.53;;;;;;;10.86;80.28;98942.78;4971484;28;20125;-88
2022/02/13 09:43:26;;;;;;;10.43;2.50;;;;;;;11.01;79.60;98940.50;4971955;28;20588;-88
2022/02/13 09:45:52;;;;;;;10.63;3.05;;;;;;;10.80;80.46;98927.59;4962963;28;20043;-88
2022/02/13 09:48:22;;;;;;;20.17;3.22;;;;;;;11.08;79.16;98930.28;4973587;28;20466;-87
2022/02/13 09:50:48;;;;;;;17.02;2.95;;;;;;;10.94;79.36;98918.44;4958582;28;20035;-87
2022/02/13 09:53:15;;;;;;;10.27;2.90;;;;;;;10.83;80.56;98921.22;4967987;28;20212;-87
2022/02/13 09:55:41;;;;;;;21.35;3.33;;;;;;;10.90;80.42;98919.69;4973937;28;20027;-87
2022/02/13 09:58:07;;;;;;;13.05;3.15;;;;;;;10.97;79.68;98915.50;4972867;28;20042;-86
2022/02/13 10:00:52;;;;;;;14.35;3.90;;;;;;;11.08;79.15;98912.72;4973156;28;20074;-86
2022/02/13 10:03:39;;;;;;;24.95;3.72;;;;;;;10.87;80.55;98912.09;4973586;28;20022;-86
2022/02/13 10:06:10;;;;;;;21.15;4.20;;;;;;;10.93;79.96;98890.50;4972593;28;20043;-86
2022/02/13 10:08:42;;;;;;;24.75;3.80;;;;;;;11.23;78.83;98893.84;4973153;28;20063;-86
2022/02/13 10:11:17;;;;;;;26.13;5.70;;;;;;;11.25;78.95;98878.75;4973509;28;20027;-86
2022/02/13 10:13:47;;;;;;;19.13;3.80;;;;;;;11.21;78.74;98872.97;4972622;28;20033;-85
2022/02/13 10:16:33;;;;;;;9.00;3.08;;;;;;;11.16;79.04;98869.13;4973297;28;20019;-87
2022/02/13 10:18:58;;;;;;;16.30;3.45;;;;;;;11.10;79.59;98865.28;4972890;28;20018;-87
2022/02/13 10:21:44;;;;;;;17.20;3.78;;;;;;;11.04;79.43;98895.59;4972673;28;20057;-87
2022/02/13 10:24:32;;;;;;;15.73;3.50;;;;;;;11.14;79.59;98850.03;4969909;28;20018;-85
2022/02/13 10:26:57;;;;;;;14.25;3.60;;;;;;;11.32;78.97;98859.63;4968323;28;20065;-86
2022/02/13 10:29:28;;;;;;;20.23;3.83;;;;;;;11.40;77.93;98861.53;4961907;28;20046;-86
2022/02/13 10:32:13;;;;;;;17.10;3.63;;;;;;;11.39;78.56;98844.09;4972496;28;20031;-85
2022/02/13 10:34:54;;;;;;;11.18;3.60;;;;;;;11.15;80.39;98842.03;4971255;28;20359;-92
2022/02/13 10:37:41;;;;;;;21.03;3.53;;;;;;;11.42;79.51;98822.78;4972523;28;20070;-89
2022/02/13 10:40:14;;;;;;;15.30;3.70;;;;;;;11.35;79.83;98816.47;4973335;28;20027;-89
2022/02/13 10:42:39;;;;;;;12.60;3.13;;;;;;;11.02;82.16;98829.25;4972363;28;20049;-88
2022/02/13 10:45:28;;;;;;;15.00;3.22;;;;;;;11.32;80.44;98804.47;4972466;28;20030;-90
2022/02/13 10:47:57;;;;;;;12.45;3.20;;;;;;;11.33;80.28;98792.13;4975078;28;20039;-88
2022/02/13 10:50:23;;;;;;;19.58;4.07;;;;;;;11.20;81.11;98807.47;4973548;28;20035;-88
2022/02/13 10:52:53;;;;;;;14.05;3.80;;;;;;;11.22;81.34;98795.81;4971482;28;20196;-88
2022/02/13 10:55:19;;;;;;;13.88;2.88;;;;;;;11.28;80.59;98789.16;4974733;28;20027;-88
2022/02/13 10:57:45;;;;;;;12.02;2.90;;;;;;;11.11;82.18;98782.88;4972269;28;20057;-87
2022/02/13 11:00:12;;;;;;;16.63;3.45;;;;;;;11.30;81.29;98784.56;4972886;28;20023;-89
2022/02/13 11:02:39;;;;;;;11.50;2.22;;;;;;;10.93;83.34;98774.16;4975779;28;20038;-88
2022/02/13 11:05:07;;;;;;;12.73;2.88;;;;;;;11.22;82.18;98760.84;4973800;28;20033;-89
2022/02/13 11:07:34;;;;;;;5.88;2.95;;;;;;;11.32;81.74;98757.16;4972896;28;20031;-89
2022/02/13 11:10:01;;;;;;;21.65;2.67;;;;;;;11.49;80.32;98763.41;4972334;28;20416;-88
2022/02/13 11:12:27;;;;;;;7.75;2.10;;;;;;;11.95;78.15;98738.78;4964358;28;20026;-90
2022/02/13 11:15:13;;;;;;;8.68;1.90;;;;;;;11.91;77.71;98743.56;4954196;28;20167;-89
2022/02/13 11:17:42;;;;;;;5.55;1.88;;;;;;;11.36;80.21;98743.75;4972828;28;20106;-88
2022/02/13 11:20:11;;;;;;;12.38;2.20;;;;;;;11.59;79.50;98723.06;4959634;28;20106;-88